Time;durP1;ratioP1;P1;durP2;ratioP2;P2;SDS_P1;SDS_P2;PMS_P1;PMS_P2;Temp;Humidity;BMP_temperature;BMP_pressure;BME280_temperature;BME280_humidity;BME280_pressure;Samples;Min_cycle;Max_cycle;Signal;HPM_P1;HPM_P2
2022/01/04 00:02:03;;;;;;;6.10;2.70;;;;;;;10.03;94.19;100139.25;5014395;28;20045;-54
2022/01/04 00:04:32;;;;;;;6.03;2.47;;;;;;;10.03;93.96;100134.63;5013453;28;20096;-49
2022/01/04 00:06:59;;;;;;;6.95;3.20;;;;;;;10.02;94.03;100124.00;5012717;28;20477;-53
2022/01/04 00:09:27;;;;;;;6.47;2.70;;;;;;;10.03;94.51;100118.28;5001942;28;20069;-52
2022/01/04 00:14:23;;;;;;;7.78;3.28;;;;;;;10.03;93.30;100109.31;4995179;28;20153;-53
2022/01/04 00:16:54;;;;;;;6.18;2.88;;;;;;;10.02;93.44;100100.31;5011598;28;20030;-50
2022/01/04 00:19:23;;;;;;;6.47;2.95;;;;;;;10.00;93.52;100102.50;5013951;28;20046;-51
2022/01/04 00:21:50;;;;;;;7.10;3.20;;;;;;;10.00;93.51;100096.25;5014270;28;20042;-53
2022/01/04 00:24:18;;;;;;;5.45;2.58;;;;;;;9.99;93.11;100102.81;5013679;28;20034;-53
2022/01/04 00:26:46;;;;;;;7.93;3.13;;;;;;;9.97;93.00;100099.53;5013839;28;20042;-54
2022/01/04 00:29:15;;;;;;;6.00;2.78;;;;;;;9.96;93.05;100097.94;4999637;28;20092;-49
2022/01/04 00:31:43;;;;;;;5.55;2.72;;;;;;;9.95;92.94;100082.69;4993917;28;20421;-55
2022/01/04 00:34:10;;;;;;;8.45;3.22;;;;;;;9.95;92.63;100072.59;4994527;28;20046;-53
2022/01/04 00:36:38;;;;;;;7.38;2.97;;;;;;;9.94;92.80;100062.00;5013347;28;20052;-52
2022/01/04 00:39:05;;;;;;;5.10;2.55;;;;;;;9.93;92.86;100054.94;5001106;28;20034;-52
2022/01/04 00:41:34;;;;;;;5.95;2.80;;;;;;;9.95;92.40;100059.00;4994370;28;20121;-52
2022/01/04 00:44:01;;;;;;;5.45;2.83;;;;;;;9.92;92.56;100048.69;4994215;28;20497;-53
2022/01/04 00:46:29;;;;;;;8.13;2.83;;;;;;;9.91;92.91;100038.91;4994177;28;20444;-51
2022/01/04 00:49:30;;;;;;;9.77;3.47;;;;;;;9.92;92.63;100034.28;5000376;28;20133;-51
2022/01/04 00:51:51;;;;;;;6.22;3.00;;;;;;;9.93;92.83;100038.59;4993806;28;20046;-50
2022/01/04 00:54:20;;;;;;;6.72;2.90;;;;;;;9.91;92.51;100038.06;4994061;28;20401;-48
2022/01/04 00:56:49;;;;;;;8.30;2.85;;;;;;;9.90;92.64;100034.53;4994075;28;20074;-49
2022/01/04 00:59:17;;;;;;;5.68;2.70;;;;;;;9.90;92.51;100039.19;4996839;28;20038;-51
2022/01/04 01:01:45;;;;;;;5.53;2.67;;;;;;;9.88;92.66;100031.28;5013390;28;20129;-52
2022/01/04 01:04:13;;;;;;;4.43;2.60;;;;;;;9.88;92.62;100019.59;5015814;28;20052;-56
2022/01/04 01:06:41;;;;;;;3.50;2.22;;;;;;;9.88;92.73;100022.31;5002881;28;20053;-51
2022/01/04 01:09:09;;;;;;;6.72;2.67;;;;;;;9.89;92.30;100018.53;4993765;28;20489;-55
2022/01/04 01:11:36;;;;;;;3.88;2.72;;;;;;;9.88;92.45;100011.44;5008211;28;20393;-49
2022/01/04 01:14:04;;;;;;;6.43;2.80;;;;;;;9.86;92.32;100006.28;5012909;28;20511;-52
2022/01/04 01:16:32;;;;;;;6.07;2.80;;;;;;;9.88;92.49;100014.97;5013456;28;20046;-48
2022/01/04 01:18:59;;;;;;;4.78;2.90;;;;;;;9.87;92.49;100015.25;5012240;28;20038;-54
2022/01/04 01:21:27;;;;;;;4.50;2.67;;;;;;;9.87;92.63;100017.97;5011927;28;20058;-53
2022/01/04 01:23:55;;;;;;;5.15;2.50;;;;;;;9.86;92.51;100010.91;5012932;28;20052;-51
2022/01/04 01:26:22;;;;;;;4.90;2.40;;;;;;;9.87;92.43;100007.09;5002351;28;20041;-48
2022/01/04 01:28:50;;;;;;;5.68;2.70;;;;;;;9.87;92.69;99993.50;4993453;28;20038;-49
2022/01/04 01:31:17;;;;;;;6.55;2.63;;;;;;;9.85;92.33;100001.13;4997283;28;20137;-51
2022/01/04 01:33:45;;;;;;;5.43;2.70;;;;;;;9.84;92.47;99988.59;5013043;28;20404;-50
2022/01/04 01:36:13;;;;;;;5.47;2.70;;;;;;;9.84;92.43;99985.88;5004927;28;20042;-50
2022/01/04 01:38:40;;;;;;;4.28;2.60;;;;;;;9.82;92.63;99992.44;4993508;28;20052;-50
2022/01/04 01:41:08;;;;;;;6.47;2.97;;;;;;;9.82;92.56;99978.81;4993523;28;20050;-49
2022/01/04 01:43:35;;;;;;;6.97;2.67;;;;;;;9.81;92.70;99989.97;4994634;28;20046;-50
2022/01/04 01:46:03;;;;;;;5.97;2.70;;;;;;;9.79;92.98;99971.25;5002979;28;20034;-51
2022/01/04 01:48:31;;;;;;;5.32;2.80;;;;;;;9.78;92.81;99983.19;5012919;28;20050;-48
2022/01/04 01:50:58;;;;;;;9.13;3.22;;;;;;;9.77;92.92;99978.06;5011077;28;20409;-50
2022/01/04 01:53:26;;;;;;;6.25;2.83;;;;;;;9.77;92.76;99967.97;5012858;28;20140;-48
2022/01/04 01:55:54;;;;;;;7.13;3.13;;;;;;;9.77;92.90;99965.28;5012620;28;20045;-50
2022/01/04 01:58:21;;;;;;;6.40;2.90;;;;;;;9.76;92.96;99966.34;5012550;28;20034;-52
2022/01/04 02:00:49;;;;;;;5.15;2.60;;;;;;;9.78;93.13;99963.34;5013065;28;20041;-50
2022/01/04 02:03:16;;;;;;;5.95;2.67;;;;;;;9.77;93.19;99961.75;5010516;28;20393;-51
2022/01/04 02:05:44;;;;;;;5.65;2.80;;;;;;;9.77;93.02;99964.47;5008780;28;20544;-49
2022/01/04 02:08:12;;;;;;;6.38;3.20;;;;;;;9.77;92.88;99957.09;4991988;28;20081;-49
2022/01/04 02:10:41;;;;;;;7.85;3.28;;;;;;;9.74;92.91;99954.97;4992994;28;20042;-48
2022/01/04 02:13:08;;;;;;;6.75;3.38;;;;;;;9.76;93.18;99955.47;4992047;28;20097;-52
2022/01/04 02:15:36;;;;;;;6.60;2.88;;;;;;;9.75;93.32;99948.41;5007835;28;20042;-50
2022/01/04 02:18:04;;;;;;;7.13;2.90;;;;;;;9.77;93.12;99934.53;5012146;28;20049;-51
2022/01/04 02:20:31;;;;;;;6.88;3.47;;;;;;;9.73;92.90;99937.00;5012538;28;20050;-49
2022/01/04 02:22:59;;;;;;;6.22;2.90;;;;;;;9.73;93.00;99933.47;5010963;28;20038;-51
2022/01/04 02:25:27;;;;;;;8.55;3.50;;;;;;;9.71;92.91;99925.59;5012685;28;20511;-49
2022/01/04 02:27:55;;;;;;;6.90;3.47;;;;;;;9.71;93.01;99919.34;5012845;28;20057;-52
2022/01/04 02:30:22;;;;;;;7.78;3.30;;;;;;;9.72;93.17;99921.78;5011133;28;20061;-52
2022/01/04 02:32:51;;;;;;;6.80;3.20;;;;;;;9.71;92.99;99916.63;5000411;28;20038;-49
2022/01/04 02:35:22;;;;;;;4.82;2.80;;;;;;;9.71;92.95;99913.91;4992685;28;20034;-47
2022/01/04 02:37:52;;;;;;;5.75;3.08;;;;;;;9.69;92.81;99916.91;4991667;28;20046;-49
2022/01/04 02:40:19;;;;;;;7.40;3.38;;;;;;;9.68;93.17;99909.84;4995915;28;20052;-52
2022/01/04 02:42:47;;;;;;;6.70;3.00;;;;;;;9.69;93.04;99911.47;4997594;28;20050;-47
2022/01/04 02:45:14;;;;;;;8.93;3.80;;;;;;;9.69;92.77;99910.66;4996714;28;20109;-51
2022/01/04 02:47:42;;;;;;;6.05;3.25;;;;;;;9.68;93.15;99907.13;4996248;28;20061;-50
2022/01/04 02:50:10;;;;;;;7.93;3.30;;;;;;;9.69;92.99;99905.22;4997128;28;20042;-49
2022/01/04 02:52:39;;;;;;;6.05;3.00;;;;;;;9.68;92.91;99904.41;5007629;28;20536;-45
2022/01/04 02:55:09;;;;;;;6.47;3.13;;;;;;;9.69;92.78;99894.31;5014978;28;20512;-51
2022/01/04 02:57:37;;;;;;;6.25;3.35;;;;;;;9.69;92.79;99895.16;5015875;28;20045;-49
2022/01/04 03:00:07;;;;;;;6.47;2.92;;;;;;;9.70;92.62;99898.69;5015947;28;20050;-51
2022/01/04 03:02:35;;;;;;;6.18;3.25;;;;;;;9.70;92.47;99885.09;5013821;28;20061;-52
2022/01/04 03:05:04;;;;;;;6.93;3.60;;;;;;;9.69;92.48;99878.84;5014072;28;20538;-50
2022/01/04 03:07:32;;;;;;;6.88;3.28;;;;;;;9.67;92.37;99881.03;5006909;28;20149;-48
2022/01/04 03:10:00;;;;;;;7.32;3.22;;;;;;;9.66;91.84;99870.44;4996947;28;20046;-49
2022/01/04 03:12:27;;;;;;;5.13;2.92;;;;;;;9.66;92.03;99870.44;4999263;28;20042;-52
2022/01/04 03:14:56;;;;;;;5.68;3.05;;;;;;;9.67;92.24;99869.31;4994491;28;20428;-49
2022/01/04 03:17:23;;;;;;;6.90;3.40;;;;;;;9.67;91.80;99869.31;4995919;28;20493;-50
2022/01/04 03:19:51;;;;;;;7.60;3.17;;;;;;;9.66;91.99;99856.81;4995544;28;20065;-48
2022/01/04 03:22:18;;;;;;;7.13;3.25;;;;;;;9.69;92.29;99858.97;4995637;28;20038;-50
2022/01/04 03:24:46;;;;;;;8.85;3.22;;;;;;;9.67;92.07;99845.66;4995604;28;20057;-51
2022/01/04 03:27:13;;;;;;;8.73;3.20;;;;;;;9.65;91.80;99836.97;4995946;28;20540;-50
2022/01/04 03:29:41;;;;;;;6.32;3.50;;;;;;;9.64;92.17;99840.78;4996288;28;20042;-49
2022/01/04 03:32:09;;;;;;;9.57;3.65;;;;;;;9.63;91.87;99819.31;5015052;28;20049;-48
2022/01/04 03:34:37;;;;;;;5.97;3.30;;;;;;;9.64;91.98;99815.50;5014919;28;20042;-48
2022/01/04 03:37:04;;;;;;;8.30;3.85;;;;;;;9.62;91.82;99807.66;5014982;28;20397;-53
2022/01/04 03:39:32;;;;;;;9.02;3.88;;;;;;;9.61;91.83;99803.28;5015090;28;20038;-50
2022/01/04 03:42:00;;;;;;;7.57;3.55;;;;;;;9.64;91.95;99797.25;5013629;28;20042;-48
2022/01/04 03:44:28;;;;;;;7.80;3.90;;;;;;;9.63;91.75;99786.69;5015372;28;20076;-52
2022/01/04 03:46:56;;;;;;;6.68;3.58;;;;;;;9.60;92.05;99777.19;5014754;28;20472;-50
2022/01/04 03:49:24;;;;;;;7.80;4.00;;;;;;;9.60;91.61;99774.47;5015105;28;20420;-52
2022/01/04 03:51:52;;;;;;;8.60;3.70;;;;;;;9.63;91.97;99767.66;5013475;28;20046;-47
2022/01/04 03:54:19;;;;;;;7.32;4.00;;;;;;;9.61;91.56;99767.94;5014812;28;20456;-48
2022/01/04 03:56:47;;;;;;;6.68;3.55;;;;;;;9.60;91.71;99763.59;5014945;28;20049;-50
2022/01/04 03:59:15;;;;;;;6.68;3.50;;;;;;;9.59;91.75;99756.53;5014471;28;20428;-51
2022/01/04 04:01:43;;;;;;;9.15;3.95;;;;;;;9.58;91.58;99753.00;5013064;28;20042;-50
2022/01/04 04:04:11;;;;;;;8.02;3.63;;;;;;;9.58;91.71;99749.47;5006666;28;20499;-48
2022/01/04 04:06:39;;;;;;;8.25;3.55;;;;;;;9.61;92.12;99740.75;4993909;28;20465;-50
2022/01/04 04:09:07;;;;;;;10.02;4.00;;;;;;;9.59;91.33;99734.78;4995456;28;20417;-47
2022/01/04 04:11:34;;;;;;;8.88;3.95;;;;;;;9.54;91.26;99741.06;4995058;28;20046;-45
2022/01/04 04:14:02;;;;;;;7.45;3.60;;;;;;;9.54;91.35;99734.81;4996006;28;20057;-48
2022/01/04 04:16:29;;;;;;;7.78;3.58;;;;;;;9.52;91.11;99726.16;4994769;28;20049;-50
2022/01/04 04:18:57;;;;;;;6.90;3.58;;;;;;;9.53;91.16;99735.94;4994548;28;20412;-51
2022/01/04 04:21:25;;;;;;;7.88;3.38;;;;;;;9.52;91.04;99732.38;4995101;28;20065;-48
2022/01/04 04:23:52;;;;;;;9.10;3.35;;;;;;;9.52;91.09;99720.72;5003121;28;20042;-45
2022/01/04 04:26:20;;;;;;;7.93;3.60;;;;;;;9.51;91.15;99708.22;5014225;28;20041;-53
2022/01/04 04:28:47;;;;;;;8.02;3.65;;;;;;;9.51;91.06;99698.16;5014170;28;20050;-53
2022/01/04 04:31:15;;;;;;;8.68;3.47;;;;;;;9.55;91.63;99709.28;5014378;28;20100;-47
2022/01/04 04:33:42;;;;;;;8.25;3.80;;;;;;;9.53;91.28;99711.47;5012461;28;20129;-48
2022/01/04 04:36:10;;;;;;;8.15;3.40;;;;;;;9.51;91.23;99711.75;5014206;28;20046;-50
2022/01/04 04:38:38;;;;;;;8.02;3.70;;;;;;;9.48;91.00;99706.88;5013846;28;20042;-47
2022/01/04 04:41:05;;;;;;;7.28;3.35;;;;;;;9.51;91.62;99710.94;5012607;28;20050;-50
2022/01/04 04:43:33;;;;;;;9.35;4.18;;;;;;;9.50;91.52;99707.41;5012629;28;20050;-48
2022/01/04 04:46:00;;;;;;;6.57;3.15;;;;;;;9.48;91.60;99701.44;5014642;28;20108;-49
2022/01/04 04:48:28;;;;;;;6.78;3.35;;;;;;;9.49;91.66;99703.06;5014006;28;20048;-50
2022/01/04 04:50:56;;;;;;;8.65;4.00;;;;;;;9.48;91.60;99695.22;5000016;28;20117;-49
2022/01/04 04:53:23;;;;;;;7.75;3.65;;;;;;;9.46;91.61;99703.66;4995758;28;20034;-50
2022/01/04 04:55:51;;;;;;;8.80;4.07;;;;;;;9.44;91.60;99703.13;5013444;28;20485;-46
2022/01/04 04:58:18;;;;;;;6.78;3.58;;;;;;;9.46;91.57;99705.56;5012948;28;20140;-52
2022/01/04 05:00:46;;;;;;;9.68;3.88;;;;;;;9.45;91.38;99703.91;5013553;28;20453;-50
2022/01/04 05:03:14;;;;;;;7.32;3.53;;;;;;;9.43;91.56;99695.25;5006476;28;20509;-52
2022/01/04 05:05:41;;;;;;;7.32;3.90;;;;;;;9.43;91.81;99695.25;5013481;28;20042;-49
2022/01/04 05:08:10;;;;;;;7.53;3.85;;;;;;;9.45;91.94;99698.47;5013540;28;20046;-50
2022/01/04 05:10:37;;;;;;;8.45;4.03;;;;;;;9.44;91.66;99692.25;5012149;28;20492;-47
2022/01/04 05:13:05;;;;;;;7.30;3.80;;;;;;;9.43;91.54;99690.63;5011421;28;20038;-48
2022/01/04 05:15:32;;;;;;;9.15;4.22;;;;;;;9.44;91.77;99694.16;5013654;28;20081;-48
2022/01/04 05:18:00;;;;;;;8.18;3.90;;;;;;;9.45;91.76;99712.06;5013298;28;20068;-51
2022/01/04 05:20:28;;;;;;;7.28;3.60;;;;;;;9.42;91.80;99696.34;5013550;28;20058;-49
2022/01/04 05:22:55;;;;;;;8.13;3.97;;;;;;;9.43;91.87;99681.66;5013116;28;20042;-50
2022/01/04 05:25:23;;;;;;;7.97;4.00;;;;;;;9.43;91.83;99687.91;5011296;28;20405;-49
2022/01/04 05:27:50;;;;;;;6.10;3.35;;;;;;;9.44;91.60;99669.69;5013019;28;20042;-52
2022/01/04 05:30:18;;;;;;;7.75;4.03;;;;;;;9.44;92.13;99672.41;5013063;28;20116;-51
2022/01/04 05:32:45;;;;;;;8.60;4.30;;;;;;;9.39;91.92;99674.06;5010935;28;20503;-52
2022/01/04 05:35:14;;;;;;;7.43;3.80;;;;;;;9.41;92.09;99671.06;4994315;28;20047;-49
2022/01/04 05:37:41;;;;;;;8.15;4.00;;;;;;;9.43;92.05;99673.50;4993733;28;20061;-51
2022/01/04 05:40:09;;;;;;;8.95;4.13;;;;;;;9.42;92.04;99663.72;4993581;28;20049;-50
2022/01/04 05:42:37;;;;;;;8.40;3.83;;;;;;;9.42;92.07;99647.41;4993520;28;20042;-49
2022/01/04 05:45:05;;;;;;;10.13;4.43;;;;;;;9.44;91.71;99642.50;4994689;28;20045;-48
2022/01/04 05:47:33;;;;;;;8.75;4.10;;;;;;;9.43;91.61;99636.25;4993427;28;20074;-50
2022/01/04 05:50:01;;;;;;;7.65;3.90;;;;;;;9.43;91.69;99635.44;4993676;28;20460;-53
2022/01/04 05:52:28;;;;;;;9.93;4.80;;;;;;;9.41;91.78;99637.66;4994946;28;20493;-58
2022/01/04 05:54:56;;;;;;;9.50;4.90;;;;;;;9.37;91.64;99627.34;5007216;28;20073;-53
2022/01/04 05:57:24;;;;;;;9.52;4.72;;;;;;;9.33;92.01;99630.91;5013594;28;20042;-50
2022/01/04 05:59:51;;;;;;;9.25;4.72;;;;;;;9.30;92.20;99626.88;5013133;28;20046;-52
2022/01/04 06:02:19;;;;;;;8.93;4.60;;;;;;;9.28;92.16;99636.41;5013351;28;20072;-49
2022/01/04 06:04:47;;;;;;;8.70;4.20;;;;;;;9.29;92.33;99646.19;5012160;28;20038;-49
2022/01/04 06:07:14;;;;;;;9.27;4.60;;;;;;;9.27;92.29;99643.75;5012671;28;20038;-49
2022/01/04 06:09:45;;;;;;;9.45;4.90;;;;;;;9.28;92.65;99639.94;5012576;28;20050;-52
2022/01/04 06:14:53;;;;;;;10.70;5.40;;;;;;;9.29;92.74;99627.97;5012726;28;20415;-53
2022/01/04 06:17:28;;;;;;;9.50;4.80;;;;;;;9.38;93.49;99623.53;5016601;28;20050;-50
2022/01/04 06:19:58;;;;;;;7.70;4.05;;;;;;;9.42;93.18;99622.94;5016224;28;20104;-52
2022/01/04 06:22:26;;;;;;;8.98;4.35;;;;;;;9.38;92.65;99628.97;5016607;28;20489;-49
2022/01/04 06:24:55;;;;;;;10.15;4.82;;;;;;;9.36;92.47;99620.28;5014606;28;20476;-50
2022/01/04 06:27:23;;;;;;;10.25;5.13;;;;;;;9.34;92.55;99621.69;5016655;28;20042;-51
2022/01/04 06:29:51;;;;;;;9.77;4.88;;;;;;;9.32;92.84;99619.25;5016513;28;20042;-53
2022/01/04 06:32:18;;;;;;;8.82;5.10;;;;;;;9.31;92.69;99616.81;5015713;28;20389;-55
2022/01/04 06:34:46;;;;;;;9.57;4.22;;;;;;;9.34;93.10;99617.03;4996844;28;20068;-52
2022/01/04 06:37:14;;;;;;;9.40;4.82;;;;;;;9.37;92.99;99629.25;4998320;28;20056;-54
2022/01/04 06:39:43;;;;;;;8.82;4.85;;;;;;;9.35;93.02;99624.09;4997094;28;20046;-55
2022/01/04 06:42:11;;;;;;;9.07;4.72;;;;;;;9.37;93.17;99613.75;4995709;28;20038;-50
2022/01/04 06:44:41;;;;;;;10.15;5.32;;;;;;;9.33;93.30;99620.88;4996651;28;20054;-52
2022/01/04 06:47:10;;;;;;;7.93;4.00;;;;;;;9.37;93.97;99608.31;5007489;28;20389;-53
2022/01/04 06:49:38;;;;;;;8.35;4.32;;;;;;;9.52;97.15;99603.78;5014433;28;20042;-50
2022/01/04 06:52:08;;;;;;;14.48;4.85;;;;;;;9.47;94.69;99609.28;5015040;28;20049;-51
2022/01/04 06:54:36;;;;;;;8.88;5.15;;;;;;;9.36;94.52;99601.25;4996371;28;20423;-51
2022/01/04 06:57:04;;;;;;;9.00;4.63;;;;;;;9.33;94.64;99599.13;4997514;28;20042;-51
2022/01/04 06:59:31;;;;;;;10.30;5.15;;;;;;;9.33;94.50;99599.13;4995846;28;20501;-50
2022/01/04 07:02:02;;;;;;;7.47;4.13;;;;;;;9.30;94.38;99590.72;5011076;28;20512;-53
2022/01/04 07:04:30;;;;;;;7.78;4.63;;;;;;;9.45;96.36;99576.13;5007210;28;20072;-46
2022/01/04 07:06:58;;;;;;;9.73;5.25;;;;;;;9.43;95.57;99583.78;5014300;28;20516;-52
2022/01/04 07:09:25;;;;;;;10.30;5.40;;;;;;;9.36;94.97;99584.94;5015697;28;20099;-50
2022/01/04 07:11:54;;;;;;;10.75;4.90;;;;;;;9.32;94.86;99581.19;5015078;28;20065;-49
2022/01/04 07:14:21;;;;;;;9.57;5.00;;;;;;;9.27;94.85;99572.28;5015437;28;20038;-51
2022/01/04 07:16:49;;;;;;;6.15;3.67;;;;;;;9.27;94.88;99567.66;5015321;28;20456;-51
2022/01/04 07:19:17;;;;;;;9.30;4.88;;;;;;;9.28;95.51;99569.25;5013838;28;20073;-51
2022/01/04 07:21:45;;;;;;;9.48;3.95;;;;;;;9.29;96.16;99570.91;5014784;28;20062;-49
2022/01/04 07:24:12;;;;;;;10.10;5.53;;;;;;;9.29;95.34;99567.38;5015286;28;20349;-51
2022/01/04 07:26:40;;;;;;;8.90;5.05;;;;;;;9.31;95.23;99562.47;5014814;28;20465;-52
2022/01/04 07:29:07;;;;;;;8.10;4.90;;;;;;;9.33;96.07;99560.25;5013844;28;20045;-51
2022/01/04 07:31:35;;;;;;;9.10;5.00;;;;;;;9.38;96.34;99557.50;5015061;28;20128;-50
2022/01/04 07:34:03;;;;;;;10.48;5.95;;;;;;;9.41;96.16;99545.22;5012785;28;20044;-48
2022/01/04 07:36:31;;;;;;;10.98;6.10;;;;;;;9.33;95.02;99539.31;5014994;28;20045;-49
2022/01/04 07:38:59;;;;;;;9.85;4.70;;;;;;;9.31;95.43;99530.66;5012201;28;20045;-50
2022/01/04 07:41:27;;;;;;;7.22;4.20;;;;;;;9.31;95.28;99532.56;5015127;28;20038;-49
2022/01/04 07:43:54;;;;;;;11.13;6.45;;;;;;;9.27;95.20;99529.59;5013638;28;20041;-48
2022/01/04 07:46:23;;;;;;;9.82;6.30;;;;;;;9.23;95.01;99534.00;4304874;28;10000778;-54
2022/01/04 07:48:51;;;;;;;9.30;4.78;;;;;;;9.22;95.28;99534.31;4992261;28;20505;-49
2022/01/04 07:51:19;;;;;;;10.40;5.90;;;;;;;9.25;95.39;99531.81;4994863;28;20046;-48
2022/01/04 07:53:47;;;;;;;10.00;6.65;;;;;;;9.24;94.83;99546.50;4993543;28;20038;-49
2022/01/04 07:56:14;;;;;;;12.02;6.95;;;;;;;9.23;95.13;99554.94;4993750;28;20597;-49
2022/01/04 07:58:42;;;;;;;10.98;6.57;;;;;;;9.22;95.04;99556.03;4993409;28;20047;-51
2022/01/04 08:01:10;;;;;;;10.57;6.03;;;;;;;9.25;95.03;99553.53;5001744;28;20062;-53
2022/01/04 08:03:38;;;;;;;9.85;6.20;;;;;;;9.28;95.20;99557.59;5008800;28;20064;-45
2022/01/04 08:06:05;;;;;;;12.43;7.50;;;;;;;9.26;94.93;99555.19;4992958;28;20432;-49
2022/01/04 08:08:33;;;;;;;14.75;8.63;;;;;;;9.20;94.79;99550.88;4993177;28;20108;-49
2022/01/04 08:11:01;;;;;;;14.57;8.32;;;;;;;9.16;94.81;99544.41;4994468;28;20049;-50
2022/01/04 08:13:30;;;;;;;12.73;8.50;;;;;;;9.13;95.28;99534.13;5012773;28;20049;-52
2022/01/04 08:15:57;;;;;;;14.57;8.77;;;;;;;9.10;95.54;99537.44;5012657;28;20137;-53
2022/01/04 08:18:25;;;;;;;12.85;8.68;;;;;;;9.09;95.41;99539.34;5012511;28;20053;-51
2022/01/04 08:20:57;;;;;;;14.70;9.20;;;;;;;9.09;95.79;99543.94;5012265;28;20049;-50
2022/01/04 08:23:25;;;;;;;15.85;9.05;;;;;;;9.11;95.91;99547.19;4999380;28;20103;-49
2022/01/04 08:25:54;;;;;;;13.18;8.35;;;;;;;9.14;95.60;99552.06;5012454;28;20052;-50
2022/01/04 08:28:22;;;;;;;12.65;7.78;;;;;;;9.15;95.23;99554.47;4992293;28;20047;-49
2022/01/04 08:30:49;;;;;;;10.35;5.82;;;;;;;9.20;95.69;99540.03;4993858;28;20447;-50
2022/01/04 08:33:23;;;;;;;14.13;8.00;;;;;;;9.23;95.95;99550.31;5003414;28;20461;-50
2022/01/04 08:35:50;;;;;;;11.70;7.72;;;;;;;9.21;95.28;99551.69;4993648;28;20139;-49
2022/01/04 08:38:18;;;;;;;12.98;8.00;;;;;;;9.15;95.59;99543.59;4993154;28;20046;-53
2022/01/04 08:40:46;;;;;;;12.52;8.20;;;;;;;9.14;95.45;99554.78;5004109;28;20444;-50
2022/01/04 08:43:14;;;;;;;12.77;8.07;;;;;;;9.15;95.52;99564.53;5008243;28;20046;-54
2022/01/04 08:45:42;;;;;;;12.35;8.32;;;;;;;9.14;95.54;99568.38;5005651;28;20056;-49
2022/01/04 08:48:10;;;;;;;13.40;9.02;;;;;;;9.14;95.80;99565.66;4992920;28;20295;-51
2022/01/04 08:50:38;;;;;;;13.27;8.20;;;;;;;9.16;95.91;99579.75;5011098;28;20457;-49
2022/01/04 08:53:10;;;;;;;12.23;8.27;;;;;;;9.18;95.48;99574.81;5011565;28;20050;-49
2022/01/04 08:55:38;;;;;;;12.75;8.48;;;;;;;9.19;95.80;99579.19;4993801;28;20093;-50
2022/01/04 08:58:07;;;;;;;15.50;9.15;;;;;;;9.17;95.25;99568.59;4996221;28;20042;-53
2022/01/04 09:00:36;;;;;;;16.00;9.60;;;;;;;9.16;95.42;99579.75;5009159;28;20048;-53
2022/01/04 09:03:04;;;;;;;15.20;9.75;;;;;;;9.16;95.38;99577.03;4995997;28;20046;-50
2022/01/04 09:05:33;;;;;;;14.45;9.82;;;;;;;9.17;95.53;99581.38;5006915;28;20027;-55
2022/01/04 09:08:01;;;;;;;15.00;10.05;;;;;;;9.14;95.10;99582.75;4994747;28;20043;-50
2022/01/04 09:10:29;;;;;;;16.63;10.05;;;;;;;9.15;95.79;99580.84;5007086;28;20042;-50
2022/01/04 09:13:01;;;;;;;15.00;11.23;;;;;;;9.15;95.86;99575.41;4994798;28;20077;-52
2022/01/04 09:21:27;;;;;;;17.65;10.73;;;;;;;9.13;95.74;99566.72;5006418;28;20050;-47
2022/01/04 09:23:56;;;;;;;19.08;11.73;;;;;;;9.16;95.87;99568.88;5007806;28;20489;-49
2022/01/04 09:26:25;;;;;;;17.38;10.95;;;;;;;9.14;95.93;99565.66;5008104;28;20048;-51
2022/01/04 09:28:54;;;;;;;17.08;11.80;;;;;;;9.13;96.03;99574.88;5009765;28;20474;-51
2022/01/04 09:31:23;;;;;;;16.15;10.88;;;;;;;9.12;95.65;99576.00;5010935;28;20361;-49
2022/01/04 09:33:55;;;;;;;15.68;10.80;;;;;;;9.13;95.90;99577.59;5011682;28;20128;-50
2022/01/04 09:36:39;;;;;;;17.45;11.75;;;;;;;9.17;95.64;99578.66;4997000;28;20084;-50
2022/01/04 09:39:11;;;;;;;20.58;12.82;;;;;;;9.18;95.74;99591.13;5000737;28;20049;-49
2022/01/04 09:41:39;;;;;;;22.00;11.02;;;;;;;9.17;96.05;99595.75;4993422;28;20051;-50
2022/01/04 09:44:07;;;;;;;18.80;12.13;;;;;;;9.17;96.00;99589.53;4994247;28;20111;-52
2022/01/04 09:46:35;;;;;;;21.85;13.80;;;;;;;9.13;95.80;99588.47;4993247;28;20039;-52
2022/01/04 09:49:03;;;;;;;19.60;13.18;;;;;;;9.08;96.14;99589.34;4996339;28;20046;-51
2022/01/04 09:51:32;;;;;;;16.90;13.18;;;;;;;9.07;96.48;99595.09;5012739;28;20045;-52
2022/01/04 09:53:59;;;;;;;18.13;13.02;;;;;;;9.07;96.42;99595.09;5007996;28;20038;-50
2022/01/04 09:56:27;;;;;;;21.70;13.88;;;;;;;9.05;96.54;99586.41;5012829;28;20038;-52
2022/01/04 09:58:54;;;;;;;17.90;12.85;;;;;;;9.05;96.57;99584.50;5012217;28;20042;-52
2022/01/04 10:01:27;;;;;;;16.58;12.30;;;;;;;9.09;96.57;99576.56;4995652;28;20089;-47
2022/01/04 10:04:15;;;;;;;19.98;14.05;;;;;;;9.11;96.79;99582.50;5010928;28;20049;-51
2022/01/04 10:07:00;;;;;;;19.92;14.38;;;;;;;9.09;96.73;99574.66;5012463;28;20431;-52
2022/01/04 10:09:45;;;;;;;21.37;15.93;;;;;;;9.09;97.17;99576.56;5013107;28;20065;-53
2022/01/04 10:12:19;;;;;;;24.50;16.75;;;;;;;9.06;97.52;99582.56;5011062;28;20046;-50
2022/01/04 10:14:48;;;;;;;20.63;15.48;;;;;;;9.06;97.67;99577.13;5012925;28;20046;-51
2022/01/04 10:17:21;;;;;;;21.90;15.02;;;;;;;9.06;97.43;99574.44;5012860;28;20046;-54
2022/01/04 10:19:53;;;;;;;21.15;15.07;;;;;;;9.08;97.10;99561.38;5010908;28;20515;-49
2022/01/04 10:22:34;;;;;;;20.73;14.65;;;;;;;9.07;97.38;99559.75;5012931;28;20049;-50
2022/01/04 10:25:05;;;;;;;17.48;11.85;;;;;;;9.11;97.17;99548.00;5012656;28;20045;-51
2022/01/04 10:27:38;;;;;;;23.00;15.48;;;;;;;9.11;97.45;99539.03;5011365;28;20042;-50
2022/01/04 10:30:16;;;;;;;21.25;16.13;;;;;;;9.12;97.23;99532.53;5011051;28;20413;-52
2022/01/04 10:32:59;;;;;;;20.90;15.27;;;;;;;9.13;96.90;99536.84;5012739;28;20042;-50
2022/01/04 10:35:30;;;;;;;18.52;14.48;;;;;;;9.10;97.40;99540.94;5012514;28;20048;-52
2022/01/04 10:38:20;;;;;;;22.73;14.82;;;;;;;9.10;97.17;99549.09;5011426;28;20057;-48
2022/01/04 10:40:49;;;;;;;22.60;16.20;;;;;;;9.09;97.07;99543.94;5010658;28;20046;-50
2022/01/04 10:43:21;;;;;;;24.42;16.17;;;;;;;9.11;97.55;99530.88;5008447;28;20489;-53
2022/01/04 10:45:51;;;;;;;22.17;14.27;;;;;;;9.13;97.55;99517.81;5010024;28;20042;-50
2022/01/04 10:48:23;;;;;;;20.40;14.93;;;;;;;9.16;97.26;99523.50;5012574;28;20041;-54
2022/01/04 10:50:59;;;;;;;22.42;15.63;;;;;;;9.13;97.41;99540.38;5012103;28;20443;-55
2022/01/04 10:53:32;;;;;;;;;;;;;;;9.16;97.59;99534.38;5004004;28;20046;-53
2022/01/04 10:56:03;;;;;;;22.52;15.77;;;;;;;9.20;97.47;99525.63;5006182;28;19921;-54
2022/01/04 10:58:50;;;;;;;21.50;16.08;;;;;;;9.13;97.23;99534.94;5012748;28;20141;-51
2022/01/04 11:01:20;;;;;;;24.17;16.27;;;;;;;9.11;97.56;99537.13;4998748;28;20049;-49
2022/01/04 11:03:54;;;;;;;23.13;15.95;;;;;;;9.13;97.74;99545.81;4996103;28;20042;-53
2022/01/04 11:06:24;;;;;;;24.35;16.60;;;;;;;9.10;97.81;99549.09;4995952;28;20042;-52
2022/01/04 11:08:52;;;;;;;21.55;15.13;;;;;;;9.09;97.70;99549.38;4996133;28;20046;-54
2022/01/04 11:11:19;;;;;;;21.55;15.52;;;;;;;9.08;98.05;99545.88;4997233;28;20042;-59
2022/01/04 11:13:53;;;;;;;18.40;14.75;;;;;;;9.06;97.55;99542.63;4997663;28;20125;-54
2022/01/04 11:16:23;;;;;;;25.20;15.93;;;;;;;9.03;98.11;99539.69;4995090;28;20046;-54
2022/01/04 11:18:53;;;;;;;20.20;15.98;;;;;;;9.03;97.75;99539.69;5000052;28;20052;-52
2022/01/04 11:21:41;;;;;;;21.15;15.90;;;;;;;9.03;98.00;99534.25;4998215;28;20065;-50
2022/01/04 11:24:17;;;;;;;25.08;16.92;;;;;;;9.04;98.31;99535.88;4996926;28;20092;-48
2022/01/04 11:26:47;;;;;;;22.25;15.98;;;;;;;9.00;98.71;99549.22;5012682;28;20121;-50
2022/01/04 11:29:15;;;;;;;22.33;16.42;;;;;;;8.99;99.07;99547.59;5014325;28;20050;-48
2022/01/04 11:32:02;;;;;;;22.42;15.65;;;;;;;8.93;100.00;99557.72;5014114;28;20034;-50
2022/01/04 11:34:55;;;;;;;20.70;15.10;;;;;;;8.88;99.99;99565.13;5011872;28;21572;-52
2022/01/04 11:37:23;;;;;;;14.70;10.18;;;;;;;8.76;98.23;99562.78;5014866;28;20539;-53
2022/01/04 11:39:52;;;;;;;10.05;5.97;;;;;;;8.67;95.16;99561.78;4307697;28;10000095;-50
2022/01/04 11:42:34;;;;;;;7.45;4.30;;;;;;;8.63;93.49;99566.16;4994109;28;20112;-53
2022/01/04 11:45:04;;;;;;;6.57;3.65;;;;;;;8.62;93.05;99556.41;5000018;28;20062;-54
2022/01/04 11:47:32;;;;;;;5.18;3.30;;;;;;;8.60;93.14;99559.41;4993698;28;20046;-52
2022/01/04 11:50:09;;;;;;;7.28;3.20;;;;;;;8.59;93.58;99548.84;5000789;28;20054;-54
2022/01/04 11:52:39;;;;;;;5.50;3.17;;;;;;;8.60;93.77;99553.97;4993709;28;20061;-52
2022/01/04 11:55:25;;;;;;;6.50;3.50;;;;;;;8.60;94.56;99547.75;4994735;28;20081;-55
2022/01/04 11:57:56;;;;;;;6.57;3.90;;;;;;;8.64;94.88;99560.47;4994778;28;20126;-53